sensor_id;sensor_type;location;lat;lon;timestamp;temperature;humidity
8067;DHT22;4076;48.076;9.118;2023-04-03T00:01:23;4.20;99.90
8067;DHT22;4076;48.076;9.118;2023-04-03T00:03:49;4.20;99.90
8067;DHT22;4076;48.076;9.118;2023-04-03T00:06:15;4.10;99.90
8067;DHT22;4076;48.076;9.118;2023-04-03T00:08:40;4.10;99.90
8067;DHT22;4076;48.076;9.118;2023-04-03T00:11:07;4.10;99.90
8067;DHT22;4076;48.076;9.118;2023-04-03T00:13:33;4.10;99.90
8067;DHT22;4076;48.076;9.118;2023-04-03T00:15:59;4.10;99.90
8067;DHT22;4076;48.076;9.118;2023-04-03T00:18:25;4.20;99.90
8067;DHT22;4076;48.076;9.118;2023-04-03T00:20:50;4.20;99.90
8067;DHT22;4076;48.076;9.118;2023-04-03T00:23:16;4.20;99.90
8067;DHT22;4076;48.076;9.118;2023-04-03T00:25:42;4.20;99.90
8067;DHT22;4076;48.076;9.118;2023-04-03T00:28:08;4.20;99.90
8067;DHT22;4076;48.076;9.118;2023-04-03T00:30:33;4.20;99.90
8067;DHT22;4076;48.076;9.118;2023-04-03T00:32:59;4.20;99.90
8067;DHT22;4076;48.076;9.118;2023-04-03T00:35:26;4.20;99.90
8067;DHT22;4076;48.076;9.118;2023-04-03T00:37:53;4.10;99.90
8067;DHT22;4076;48.076;9.118;2023-04-03T00:40:19;4.00;99.90
8067;DHT22;4076;48.076;9.118;2023-04-03T00:42:47;4.00;99.90
8067;DHT22;4076;48.076;9.118;2023-04-03T00:45:46;3.90;99.90
8067;DHT22;4076;48.076;9.118;2023-04-03T00:48:22;3.90;99.90
8067;DHT22;4076;48.076;9.118;2023-04-03T00:50:48;3.90;99.90
8067;DHT22;4076;48.076;9.118;2023-04-03T00:53:21;3.90;99.90
8067;DHT22;4076;48.076;9.118;2023-04-03T00:55:49;3.90;99.90
8067;DHT22;4076;48.076;9.118;2023-04-03T00:58:17;3.80;99.90
8067;DHT22;4076;48.076;9.118;2023-04-03T01:00:48;3.80;99.90
8067;DHT22;4076;48.076;9.118;2023-04-03T01:03:14;3.80;99.90
8067;DHT22;4076;48.076;9.118;2023-04-03T01:05:40;3.70;99.90
8067;DHT22;4076;48.076;9.118;2023-04-03T01:08:06;3.60;99.90
8067;DHT22;4076;48.076;9.118;2023-04-03T01:10:31;3.60;99.90
8067;DHT22;4076;48.076;9.118;2023-04-03T01:12:57;3.60;99.90
8067;DHT22;4076;48.076;9.118;2023-04-03T01:15:26;3.60;99.90
8067;DHT22;4076;48.076;9.118;2023-04-03T01:17:57;3.60;99.90
8067;DHT22;4076;48.076;9.118;2023-04-03T01:25:45;3.50;99.90
8067;DHT22;4076;48.076;9.118;2023-04-03T01:28:17;3.50;99.90
8067;DHT22;4076;48.076;9.118;2023-04-03T01:30:51;3.50;99.90
8067;DHT22;4076;48.076;9.118;2023-04-03T01:33:19;3.50;99.90
8067;DHT22;4076;48.076;9.118;2023-04-03T01:35:45;3.40;99.90
8067;DHT22;4076;48.076;9.118;2023-04-03T01:38:10;3.40;99.90
8067;DHT22;4076;48.076;9.118;2023-04-03T01:40:37;3.30;99.90
8067;DHT22;4076;48.076;9.118;2023-04-03T01:43:03;3.40;99.90
8067;DHT22;4076;48.076;9.118;2023-04-03T01:45:28;3.30;99.90
8067;DHT22;4076;48.076;9.118;2023-04-03T01:47:54;3.30;99.90
8067;DHT22;4076;48.076;9.118;2023-04-03T01:50:20;3.30;99.90
8067;DHT22;4076;48.076;9.118;2023-04-03T01:52:45;3.20;99.90
8067;DHT22;4076;48.076;9.118;2023-04-03T01:55:11;3.10;99.90
8067;DHT22;4076;48.076;9.118;2023-04-03T01:57:36;3.10;99.90
8067;DHT22;4076;48.076;9.118;2023-04-03T02:00:02;3.10;99.90
8067;DHT22;4076;48.076;9.118;2023-04-03T02:02:28;3.10;99.90
8067;DHT22;4076;48.076;9.118;2023-04-03T02:04:53;3.10;99.90
8067;DHT22;4076;48.076;9.118;2023-04-03T02:07:20;3.00;99.90
8067;DHT22;4076;48.076;9.118;2023-04-03T02:09:45;2.90;99.90
8067;DHT22;4076;48.076;9.118;2023-04-03T02:12:11;2.80;99.90
8067;DHT22;4076;48.076;9.118;2023-04-03T02:14:36;2.80;99.90
8067;DHT22;4076;48.076;9.118;2023-04-03T02:17:02;2.80;99.90
8067;DHT22;4076;48.076;9.118;2023-04-03T02:19:30;2.70;99.90
8067;DHT22;4076;48.076;9.118;2023-04-03T02:21:56;2.70;99.90
8067;DHT22;4076;48.076;9.118;2023-04-03T02:24:22;2.60;99.90
8067;DHT22;4076;48.076;9.118;2023-04-03T02:26:47;2.60;99.90
8067;DHT22;4076;48.076;9.118;2023-04-03T02:29:13;2.60;99.90
8067;DHT22;4076;48.076;9.118;2023-04-03T02:31:38;2.60;99.90
8067;DHT22;4076;48.076;9.118;2023-04-03T02:34:04;2.60;99.90
8067;DHT22;4076;48.076;9.118;2023-04-03T02:36:29;2.60;99.90
8067;DHT22;4076;48.076;9.118;2023-04-03T02:38:55;2.60;99.90
8067;DHT22;4076;48.076;9.118;2023-04-03T02:41:21;2.50;99.90
8067;DHT22;4076;48.076;9.118;2023-04-03T02:43:46;2.50;99.90
8067;DHT22;4076;48.076;9.118;2023-04-03T02:46:12;2.50;99.90
8067;DHT22;4076;48.076;9.118;2023-04-03T02:48:40;2.50;99.90
8067;DHT22;4076;48.076;9.118;2023-04-03T02:51:05;2.50;99.90
8067;DHT22;4076;48.076;9.118;2023-04-03T02:53:31;2.50;99.90
8067;DHT22;4076;48.076;9.118;2023-04-03T02:55:56;2.60;99.90
8067;DHT22;4076;48.076;9.118;2023-04-03T02:58:22;2.60;99.90
8067;DHT22;4076;48.076;9.118;2023-04-03T03:00:48;2.50;99.90
8067;DHT22;4076;48.076;9.118;2023-04-03T03:03:13;2.50;99.90
8067;DHT22;4076;48.076;9.118;2023-04-03T03:05:40;2.50;99.90
8067;DHT22;4076;48.076;9.118;2023-04-03T03:08:05;2.50;99.90
8067;DHT22;4076;48.076;9.118;2023-04-03T03:10:31;2.50;99.90
8067;DHT22;4076;48.076;9.118;2023-04-03T03:12:57;2.40;99.90
8067;DHT22;4076;48.076;9.118;2023-04-03T03:15:22;2.50;99.90
8067;DHT22;4076;48.076;9.118;2023-04-03T03:17:48;2.40;99.90
8067;DHT22;4076;48.076;9.118;2023-04-03T03:20:13;2.40;99.90
8067;DHT22;4076;48.076;9.118;2023-04-03T03:22:40;2.40;99.90
8067;DHT22;4076;48.076;9.118;2023-04-03T03:25:06;2.40;99.90
8067;DHT22;4076;48.076;9.118;2023-04-03T03:27:32;2.40;99.90
8067;DHT22;4076;48.076;9.118;2023-04-03T03:29:58;2.40;99.90
8067;DHT22;4076;48.076;9.118;2023-04-03T03:32:23;2.40;99.90
8067;DHT22;4076;48.076;9.118;2023-04-03T03:34:49;2.40;99.90
8067;DHT22;4076;48.076;9.118;2023-04-03T03:37:14;2.30;99.90
8067;DHT22;4076;48.076;9.118;2023-04-03T03:39:40;2.30;99.90
8067;DHT22;4076;48.076;9.118;2023-04-03T03:42:05;2.30;99.90
8067;DHT22;4076;48.076;9.118;2023-04-03T03:44:31;2.20;99.90
8067;DHT22;4076;48.076;9.118;2023-04-03T03:46:56;2.20;99.90
8067;DHT22;4076;48.076;9.118;2023-04-03T03:49:22;2.20;99.90
8067;DHT22;4076;48.076;9.118;2023-04-03T03:51:48;2.20;99.90
8067;DHT22;4076;48.076;9.118;2023-04-03T03:54:13;2.20;99.90
8067;DHT22;4076;48.076;9.118;2023-04-03T03:56:39;2.20;99.90
8067;DHT22;4076;48.076;9.118;2023-04-03T03:59:05;2.10;99.90
8067;DHT22;4076;48.076;9.118;2023-04-03T04:01:31;2.10;99.90
8067;DHT22;4076;48.076;9.118;2023-04-03T04:03:56;2.10;99.90
8067;DHT22;4076;48.076;9.118;2023-04-03T04:06:22;2.10;99.90
8067;DHT22;4076;48.076;9.118;2023-04-03T04:08:48;2.10;99.90
8067;DHT22;4076;48.076;9.118;2023-04-03T04:11:14;2.10;99.90
8067;DHT22;4076;48.076;9.118;2023-04-03T04:13:40;2.10;99.90
8067;DHT22;4076;48.076;9.118;2023-04-03T04:16:06;2.20;99.90
8067;DHT22;4076;48.076;9.118;2023-04-03T04:18:32;2.20;99.90
8067;DHT22;4076;48.076;9.118;2023-04-03T04:20:57;2.20;99.90
8067;DHT22;4076;48.076;9.118;2023-04-03T04:23:23;2.20;99.90
8067;DHT22;4076;48.076;9.118;2023-04-03T04:25:50;2.20;99.90
8067;DHT22;4076;48.076;9.118;2023-04-03T04:28:16;2.20;99.90
8067;DHT22;4076;48.076;9.118;2023-04-03T04:30:42;2.20;99.90
8067;DHT22;4076;48.076;9.118;2023-04-03T04:33:07;2.20;99.90
8067;DHT22;4076;48.076;9.118;2023-04-03T04:35:33;2.10;99.90
8067;DHT22;4076;48.076;9.118;2023-04-03T04:37:59;2.10;99.90
8067;DHT22;4076;48.076;9.118;2023-04-03T04:40:25;2.00;99.90
8067;DHT22;4076;48.076;9.118;2023-04-03T04:42:51;2.00;99.90
8067;DHT22;4076;48.076;9.118;2023-04-03T04:45:16;1.90;99.90
8067;DHT22;4076;48.076;9.118;2023-04-03T04:47:42;2.00;99.90
8067;DHT22;4076;48.076;9.118;2023-04-03T04:50:08;2.00;99.90
8067;DHT22;4076;48.076;9.118;2023-04-03T04:52:34;1.90;99.90
8067;DHT22;4076;48.076;9.118;2023-04-03T04:55:00;1.90;99.90
8067;DHT22;4076;48.076;9.118;2023-04-03T04:57:25;1.90;99.90
8067;DHT22;4076;48.076;9.118;2023-04-03T04:59:51;1.90;99.90
8067;DHT22;4076;48.076;9.118;2023-04-03T05:02:17;1.90;99.90
8067;DHT22;4076;48.076;9.118;2023-04-03T05:04:43;1.90;99.90
8067;DHT22;4076;48.076;9.118;2023-04-03T05:07:09;1.90;99.90
8067;DHT22;4076;48.076;9.118;2023-04-03T05:09:35;2.00;99.90
8067;DHT22;4076;48.076;9.118;2023-04-03T05:12:01;2.00;99.90
8067;DHT22;4076;48.076;9.118;2023-04-03T05:14:28;2.00;99.90
8067;DHT22;4076;48.076;9.118;2023-04-03T05:16:53;2.00;99.90
8067;DHT22;4076;48.076;9.118;2023-04-03T05:19:20;2.00;99.90
8067;DHT22;4076;48.076;9.118;2023-04-03T05:21:46;2.00;99.90
8067;DHT22;4076;48.076;9.118;2023-04-03T05:24:12;2.00;99.90
8067;DHT22;4076;48.076;9.118;2023-04-03T05:26:37;2.00;99.90
8067;DHT22;4076;48.076;9.118;2023-04-03T05:29:03;2.00;99.90
8067;DHT22;4076;48.076;9.118;2023-04-03T05:31:29;2.00;99.90
8067;DHT22;4076;48.076;9.118;2023-04-03T05:33:55;2.10;99.90
8067;DHT22;4076;48.076;9.118;2023-04-03T05:36:21;2.10;99.90
8067;DHT22;4076;48.076;9.118;2023-04-03T05:38:47;2.10;99.90
8067;DHT22;4076;48.076;9.118;2023-04-03T05:41:14;2.10;99.90
8067;DHT22;4076;48.076;9.118;2023-04-03T05:43:40;2.20;99.90
8067;DHT22;4076;48.076;9.118;2023-04-03T05:46:14;2.10;99.90
8067;DHT22;4076;48.076;9.118;2023-04-03T05:48:40;2.10;99.90
8067;DHT22;4076;48.076;9.118;2023-04-03T05:51:06;2.10;99.90
8067;DHT22;4076;48.076;9.118;2023-04-03T05:53:35;2.10;99.90
8067;DHT22;4076;48.076;9.118;2023-04-03T05:56:03;2.10;99.90
8067;DHT22;4076;48.076;9.118;2023-04-03T05:58:29;2.20;99.90
8067;DHT22;4076;48.076;9.118;2023-04-03T06:00:54;2.20;99.90
8067;DHT22;4076;48.076;9.118;2023-04-03T06:03:20;2.20;99.90
8067;DHT22;4076;48.076;9.118;2023-04-03T06:05:46;2.20;99.90
8067;DHT22;4076;48.076;9.118;2023-04-03T06:08:11;2.20;99.90
8067;DHT22;4076;48.076;9.118;2023-04-03T06:10:38;2.30;99.90
8067;DHT22;4076;48.076;9.118;2023-04-03T06:13:03;2.30;99.90
8067;DHT22;4076;48.076;9.118;2023-04-03T06:15:29;2.40;99.90
8067;DHT22;4076;48.076;9.118;2023-04-03T06:17:55;2.40;99.90
8067;DHT22;4076;48.076;9.118;2023-04-03T06:20:21;2.40;99.80
8067;DHT22;4076;48.076;9.118;2023-04-03T06:22:47;2.50;99.90
8067;DHT22;4076;48.076;9.118;2023-04-03T06:25:13;2.50;99.90
8067;DHT22;4076;48.076;9.118;2023-04-03T06:27:40;2.60;99.90
8067;DHT22;4076;48.076;9.118;2023-04-03T06:30:06;2.70;99.90
8067;DHT22;4076;48.076;9.118;2023-04-03T06:32:32;2.70;99.90
8067;DHT22;4076;48.076;9.118;2023-04-03T06:34:58;2.80;99.90
8067;DHT22;4076;48.076;9.118;2023-04-03T06:37:23;2.80;99.90
8067;DHT22;4076;48.076;9.118;2023-04-03T06:39:51;2.80;99.90
8067;DHT22;4076;48.076;9.118;2023-04-03T06:42:17;2.90;99.90
8067;DHT22;4076;48.076;9.118;2023-04-03T06:44:43;2.90;99.90
8067;DHT22;4076;48.076;9.118;2023-04-03T06:47:14;2.90;98.70
8067;DHT22;4076;48.076;9.118;2023-04-03T06:49:40;2.90;98.00
8067;DHT22;4076;48.076;9.118;2023-04-03T06:52:07;3.00;98.70
8067;DHT22;4076;48.076;9.118;2023-04-03T06:54:32;3.00;97.20
8067;DHT22;4076;48.076;9.118;2023-04-03T06:56:58;3.00;96.90
8067;DHT22;4076;48.076;9.118;2023-04-03T06:59:24;3.00;97.30
8067;DHT22;4076;48.076;9.118;2023-04-03T07:01:50;3.10;97.20
8067;DHT22;4076;48.076;9.118;2023-04-03T07:04:16;3.10;96.70
8067;DHT22;4076;48.076;9.118;2023-04-03T07:06:42;3.10;97.20
8067;DHT22;4076;48.076;9.118;2023-04-03T07:09:09;3.10;96.50
8067;DHT22;4076;48.076;9.118;2023-04-03T07:11:35;3.20;96.20
8067;DHT22;4076;48.076;9.118;2023-04-03T07:14:02;3.30;95.00
8067;DHT22;4076;48.076;9.118;2023-04-03T07:16:27;3.40;94.60
8067;DHT22;4076;48.076;9.118;2023-04-03T07:18:56;3.50;95.20
8067;DHT22;4076;48.076;9.118;2023-04-03T07:21:21;3.40;92.30
8067;DHT22;4076;48.076;9.118;2023-04-03T07:23:47;3.50;93.00
8067;DHT22;4076;48.076;9.118;2023-04-03T07:26:12;3.50;93.10
8067;DHT22;4076;48.076;9.118;2023-04-03T07:28:38;3.60;93.80
8067;DHT22;4076;48.076;9.118;2023-04-03T07:31:07;3.70;93.50
8067;DHT22;4076;48.076;9.118;2023-04-03T07:33:34;3.80;93.30
8067;DHT22;4076;48.076;9.118;2023-04-03T07:36:01;4.00;92.50
8067;DHT22;4076;48.076;9.118;2023-04-03T07:38:27;4.00;90.50
8067;DHT22;4076;48.076;9.118;2023-04-03T07:40:53;3.90;90.50
8067;DHT22;4076;48.076;9.118;2023-04-03T07:43:20;3.90;89.30
8067;DHT22;4076;48.076;9.118;2023-04-03T07:45:47;3.90;90.00
8067;DHT22;4076;48.076;9.118;2023-04-03T07:48:16;3.90;90.10
8067;DHT22;4076;48.076;9.118;2023-04-03T07:50:43;3.90;90.40
8067;DHT22;4076;48.076;9.118;2023-04-03T07:53:08;4.00;89.90
8067;DHT22;4076;48.076;9.118;2023-04-03T07:55:35;3.90;88.70
8067;DHT22;4076;48.076;9.118;2023-04-03T07:58:05;3.80;89.70
8067;DHT22;4076;48.076;9.118;2023-04-03T08:00:31;3.80;89.50
8067;DHT22;4076;48.076;9.118;2023-04-03T08:02:57;3.90;88.90
8067;DHT22;4076;48.076;9.118;2023-04-03T08:05:22;4.00;88.10
8067;DHT22;4076;48.076;9.118;2023-04-03T08:07:48;3.90;87.50
8067;DHT22;4076;48.076;9.118;2023-04-03T08:10:14;3.70;89.30
8067;DHT22;4076;48.076;9.118;2023-04-03T08:12:41;3.80;89.80
8067;DHT22;4076;48.076;9.118;2023-04-03T08:15:08;3.80;90.10
8067;DHT22;4076;48.076;9.118;2023-04-03T08:17:34;3.90;90.70
8067;DHT22;4076;48.076;9.118;2023-04-03T08:20:00;4.00;90.10
8067;DHT22;4076;48.076;9.118;2023-04-03T08:22:26;4.00;89.40
8067;DHT22;4076;48.076;9.118;2023-04-03T08:24:52;4.10;89.00
8067;DHT22;4076;48.076;9.118;2023-04-03T08:27:17;4.10;89.20
8067;DHT22;4076;48.076;9.118;2023-04-03T08:29:43;4.10;88.00
8067;DHT22;4076;48.076;9.118;2023-04-03T08:32:08;4.10;87.60
8067;DHT22;4076;48.076;9.118;2023-04-03T08:34:35;4.10;89.00
8067;DHT22;4076;48.076;9.118;2023-04-03T08:37:02;4.00;89.10
8067;DHT22;4076;48.076;9.118;2023-04-03T08:39:27;4.00;89.80
8067;DHT22;4076;48.076;9.118;2023-04-03T08:41:57;4.00;90.40
8067;DHT22;4076;48.076;9.118;2023-04-03T08:44:47;4.00;89.80
8067;DHT22;4076;48.076;9.118;2023-04-03T08:47:25;4.10;90.20
8067;DHT22;4076;48.076;9.118;2023-04-03T08:49:59;4.20;89.60
8067;DHT22;4076;48.076;9.118;2023-04-03T08:55:01;4.30;89.00
8067;DHT22;4076;48.076;9.118;2023-04-03T08:57:43;4.30;89.10
8067;DHT22;4076;48.076;9.118;2023-04-03T09:00:21;4.50;91.00
8067;DHT22;4076;48.076;9.118;2023-04-03T09:02:49;4.70;88.50
8067;DHT22;4076;48.076;9.118;2023-04-03T09:05:24;4.70;88.70
8067;DHT22;4076;48.076;9.118;2023-04-03T09:10:37;4.80;88.40
8067;DHT22;4076;48.076;9.118;2023-04-03T09:13:30;4.90;87.50
8067;DHT22;4076;48.076;9.118;2023-04-03T09:16:00;5.30;87.10
8067;DHT22;4076;48.076;9.118;2023-04-03T09:18:30;5.60;83.70
8067;DHT22;4076;48.076;9.118;2023-04-03T09:23:47;5.70;85.20
8067;DHT22;4076;48.076;9.118;2023-04-03T09:26:24;6.00;85.40
8067;DHT22;4076;48.076;9.118;2023-04-03T09:28:53;6.10;82.90
8067;DHT22;4076;48.076;9.118;2023-04-03T09:31:28;5.90;80.20
8067;DHT22;4076;48.076;9.118;2023-04-03T09:33:59;5.80;78.80
8067;DHT22;4076;48.076;9.118;2023-04-03T09:36:45;5.60;78.90
8067;DHT22;4076;48.076;9.118;2023-04-03T09:39:19;5.40;77.90
8067;DHT22;4076;48.076;9.118;2023-04-03T09:42:24;5.20;78.30
8067;DHT22;4076;48.076;9.118;2023-04-03T09:47:27;5.10;81.40
8067;DHT22;4076;48.076;9.118;2023-04-03T09:50:19;5.20;81.40
8067;DHT22;4076;48.076;9.118;2023-04-03T09:52:50;5.30;80.70
8067;DHT22;4076;48.076;9.118;2023-04-03T09:55:27;5.30;80.70
8067;DHT22;4076;48.076;9.118;2023-04-03T09:57:58;5.30;79.80
8067;DHT22;4076;48.076;9.118;2023-04-03T10:00:26;5.20;78.70
8067;DHT22;4076;48.076;9.118;2023-04-03T10:02:57;5.10;77.00
8067;DHT22;4076;48.076;9.118;2023-04-03T10:05:40;5.00;76.80
8067;DHT22;4076;48.076;9.118;2023-04-03T10:10:37;5.70;79.40
8067;DHT22;4076;48.076;9.118;2023-04-03T10:13:12;6.10;76.60
8067;DHT22;4076;48.076;9.118;2023-04-03T10:15:45;6.50;74.60
8067;DHT22;4076;48.076;9.118;2023-04-03T10:21:08;6.20;70.00
8067;DHT22;4076;48.076;9.118;2023-04-03T10:26:52;6.00;68.30
8067;DHT22;4076;48.076;9.118;2023-04-03T10:29:27;6.00;68.20
8067;DHT22;4076;48.076;9.118;2023-04-03T10:41:07;7.60;62.20
8067;DHT22;4076;48.076;9.118;2023-04-03T10:46:49;7.10;59.10
8067;DHT22;4076;48.076;9.118;2023-04-03T10:51:59;6.40;59.10
8067;DHT22;4076;48.076;9.118;2023-04-03T10:54:49;6.30;59.80
8067;DHT22;4076;48.076;9.118;2023-04-03T10:57:19;6.30;59.90
8067;DHT22;4076;48.076;9.118;2023-04-03T10:59:51;6.40;60.60
8067;DHT22;4076;48.076;9.118;2023-04-03T11:02:25;6.40;60.40
8067;DHT22;4076;48.076;9.118;2023-04-03T11:05:05;6.60;62.40
8067;DHT22;4076;48.076;9.118;2023-04-03T11:07:40;6.80;60.20
8067;DHT22;4076;48.076;9.118;2023-04-03T11:10:31;7.00;60.40
8067;DHT22;4076;48.076;9.118;2023-04-03T11:13:12;7.10;58.80
8067;DHT22;4076;48.076;9.118;2023-04-03T11:15:38;7.10;57.50
8067;DHT22;4076;48.076;9.118;2023-04-03T11:18:22;7.20;56.50
8067;DHT22;4076;48.076;9.118;2023-04-03T11:21:14;7.20;56.70
8067;DHT22;4076;48.076;9.118;2023-04-03T11:23:41;7.20;55.60
8067;DHT22;4076;48.076;9.118;2023-04-03T11:26:11;7.20;56.60
8067;DHT22;4076;48.076;9.118;2023-04-03T11:28:37;7.30;56.30
8067;DHT22;4076;48.076;9.118;2023-04-03T11:36:45;7.10;54.70
8067;DHT22;4076;48.076;9.118;2023-04-03T11:41:44;6.80;55.30
8067;DHT22;4076;48.076;9.118;2023-04-03T11:44:37;6.80;53.70
8067;DHT22;4076;48.076;9.118;2023-04-03T11:47:06;6.80;53.90
8067;DHT22;4076;48.076;9.118;2023-04-03T11:49:53;6.90;54.20
8067;DHT22;4076;48.076;9.118;2023-04-03T12:05:49;6.20;56.20
8067;DHT22;4076;48.076;9.118;2023-04-03T12:14:02;5.90;57.30
8067;DHT22;4076;48.076;9.118;2023-04-03T12:19:00;5.90;56.30
8067;DHT22;4076;48.076;9.118;2023-04-03T12:26:43;6.00;56.80
8067;DHT22;4076;48.076;9.118;2023-04-03T12:45:44;6.10;56.00
8067;DHT22;4076;48.076;9.118;2023-04-03T12:48:20;6.20;56.20
8067;DHT22;4076;48.076;9.118;2023-04-03T12:50:49;6.30;56.30
8067;DHT22;4076;48.076;9.118;2023-04-03T12:53:16;6.40;55.80
8067;DHT22;4076;48.076;9.118;2023-04-03T12:55:44;6.50;56.00
8067;DHT22;4076;48.076;9.118;2023-04-03T13:00:42;6.50;56.20
8067;DHT22;4076;48.076;9.118;2023-04-03T13:03:22;6.40;56.80
8067;DHT22;4076;48.076;9.118;2023-04-03T13:05:50;6.30;56.50
8067;DHT22;4076;48.076;9.118;2023-04-03T13:08:16;6.30;56.70
8067;DHT22;4076;48.076;9.118;2023-04-03T13:11:12;6.20;57.10
8067;DHT22;4076;48.076;9.118;2023-04-03T13:13:37;6.10;56.90
8067;DHT22;4076;48.076;9.118;2023-04-03T13:16:11;6.10;56.30
8067;DHT22;4076;48.076;9.118;2023-04-03T13:18:38;6.10;56.00
8067;DHT22;4076;48.076;9.118;2023-04-03T13:21:08;6.10;56.90
8067;DHT22;4076;48.076;9.118;2023-04-03T13:23:39;6.20;56.80
8067;DHT22;4076;48.076;9.118;2023-04-03T13:26:06;6.30;55.80
8067;DHT22;4076;48.076;9.118;2023-04-03T13:28:33;6.30;55.90
8067;DHT22;4076;48.076;9.118;2023-04-03T13:31:23;6.20;56.10
8067;DHT22;4076;48.076;9.118;2023-04-03T13:34:07;6.10;55.70
8067;DHT22;4076;48.076;9.118;2023-04-03T13:36:41;6.00;56.20
8067;DHT22;4076;48.076;9.118;2023-04-03T13:41:41;5.80;56.30
8067;DHT22;4076;48.076;9.118;2023-04-03T13:49:42;5.80;56.30
8067;DHT22;4076;48.076;9.118;2023-04-03T13:54:55;5.90;55.50
8067;DHT22;4076;48.076;9.118;2023-04-03T13:57:21;5.90;55.70
8067;DHT22;4076;48.076;9.118;2023-04-03T13:59:47;6.00;55.30
8067;DHT22;4076;48.076;9.118;2023-04-03T14:02:32;5.80;54.80
8067;DHT22;4076;48.076;9.118;2023-04-03T14:05:00;5.80;55.50
8067;DHT22;4076;48.076;9.118;2023-04-03T14:07:28;5.80;56.10
8067;DHT22;4076;48.076;9.118;2023-04-03T14:09:54;5.90;55.90
8067;DHT22;4076;48.076;9.118;2023-04-03T14:12:33;6.10;55.30
8067;DHT22;4076;48.076;9.118;2023-04-03T14:15:04;6.20;55.40
8067;DHT22;4076;48.076;9.118;2023-04-03T14:17:30;6.20;54.50
8067;DHT22;4076;48.076;9.118;2023-04-03T14:19:57;6.20;54.00
8067;DHT22;4076;48.076;9.118;2023-04-03T14:22:29;6.20;53.30
8067;DHT22;4076;48.076;9.118;2023-04-03T14:24:55;6.20;53.20
8067;DHT22;4076;48.076;9.118;2023-04-03T14:27:25;6.00;53.30
8067;DHT22;4076;48.076;9.118;2023-04-03T14:29:52;5.90;53.50
8067;DHT22;4076;48.076;9.118;2023-04-03T14:32:21;5.80;53.10
8067;DHT22;4076;48.076;9.118;2023-04-03T14:34:47;5.70;54.00
8067;DHT22;4076;48.076;9.118;2023-04-03T14:37:16;5.50;54.40
8067;DHT22;4076;48.076;9.118;2023-04-03T14:39:43;5.60;54.60
8067;DHT22;4076;48.076;9.118;2023-04-03T14:42:18;5.60;54.90
8067;DHT22;4076;48.076;9.118;2023-04-03T14:44:44;5.60;55.50
8067;DHT22;4076;48.076;9.118;2023-04-03T14:47:12;5.60;55.80
8067;DHT22;4076;48.076;9.118;2023-04-03T14:49:38;5.80;55.70
8067;DHT22;4076;48.076;9.118;2023-04-03T14:52:04;5.90;55.80
8067;DHT22;4076;48.076;9.118;2023-04-03T14:54:29;6.00;56.20
8067;DHT22;4076;48.076;9.118;2023-04-03T14:56:58;6.10;55.60
8067;DHT22;4076;48.076;9.118;2023-04-03T14:59:23;6.20;55.30
8067;DHT22;4076;48.076;9.118;2023-04-03T15:01:50;6.20;55.30
8067;DHT22;4076;48.076;9.118;2023-04-03T15:04:17;6.20;55.80
8067;DHT22;4076;48.076;9.118;2023-04-03T15:06:43;6.30;55.40
8067;DHT22;4076;48.076;9.118;2023-04-03T15:09:19;6.30;55.00
8067;DHT22;4076;48.076;9.118;2023-04-03T15:11:46;6.30;55.50
8067;DHT22;4076;48.076;9.118;2023-04-03T15:14:11;6.20;55.30
8067;DHT22;4076;48.076;9.118;2023-04-03T15:16:37;6.20;54.70
8067;DHT22;4076;48.076;9.118;2023-04-03T15:19:03;6.10;53.80
8067;DHT22;4076;48.076;9.118;2023-04-03T15:21:28;6.10;53.50
8067;DHT22;4076;48.076;9.118;2023-04-03T15:23:54;6.10;53.30
8067;DHT22;4076;48.076;9.118;2023-04-03T15:26:19;6.10;53.60
8067;DHT22;4076;48.076;9.118;2023-04-03T15:28:46;6.10;53.00
8067;DHT22;4076;48.076;9.118;2023-04-03T15:31:12;5.90;53.40
8067;DHT22;4076;48.076;9.118;2023-04-03T15:33:38;5.90;53.50
8067;DHT22;4076;48.076;9.118;2023-04-03T15:36:04;5.80;53.80
8067;DHT22;4076;48.076;9.118;2023-04-03T15:38:31;5.70;53.50
8067;DHT22;4076;48.076;9.118;2023-04-03T15:40:57;5.60;54.00
8067;DHT22;4076;48.076;9.118;2023-04-03T15:43:22;5.50;54.40
8067;DHT22;4076;48.076;9.118;2023-04-03T15:45:49;5.50;54.70
8067;DHT22;4076;48.076;9.118;2023-04-03T15:48:15;5.50;55.40
8067;DHT22;4076;48.076;9.118;2023-04-03T15:50:41;5.40;55.90
8067;DHT22;4076;48.076;9.118;2023-04-03T15:53:07;5.40;55.70
8067;DHT22;4076;48.076;9.118;2023-04-03T15:55:35;5.40;56.10
8067;DHT22;4076;48.076;9.118;2023-04-03T15:58:01;5.30;55.20
8067;DHT22;4076;48.076;9.118;2023-04-03T16:00:28;5.30;55.70
8067;DHT22;4076;48.076;9.118;2023-04-03T16:03:16;5.40;55.70
8067;DHT22;4076;48.076;9.118;2023-04-03T16:05:42;5.50;55.20
8067;DHT22;4076;48.076;9.118;2023-04-03T16:08:08;5.60;55.80
8067;DHT22;4076;48.076;9.118;2023-04-03T16:10:35;5.70;54.80
8067;DHT22;4076;48.076;9.118;2023-04-03T16:13:01;5.70;55.50
8067;DHT22;4076;48.076;9.118;2023-04-03T16:15:27;5.80;55.30
8067;DHT22;4076;48.076;9.118;2023-04-03T16:17:53;6.00;54.70
8067;DHT22;4076;48.076;9.118;2023-04-03T16:20:19;6.10;52.90
8067;DHT22;4076;48.076;9.118;2023-04-03T16:22:47;6.00;51.30
8067;DHT22;4076;48.076;9.118;2023-04-03T16:25:13;5.80;51.70
8067;DHT22;4076;48.076;9.118;2023-04-03T16:27:39;5.70;51.20
8067;DHT22;4076;48.076;9.118;2023-04-03T16:30:05;5.50;51.70
8067;DHT22;4076;48.076;9.118;2023-04-03T16:32:31;5.50;52.50
8067;DHT22;4076;48.076;9.118;2023-04-03T16:34:58;5.60;52.20
8067;DHT22;4076;48.076;9.118;2023-04-03T16:37:24;5.50;51.50
8067;DHT22;4076;48.076;9.118;2023-04-03T16:39:49;5.40;51.90
8067;DHT22;4076;48.076;9.118;2023-04-03T16:42:15;5.40;52.40
8067;DHT22;4076;48.076;9.118;2023-04-03T16:44:41;5.40;52.50
8067;DHT22;4076;48.076;9.118;2023-04-03T16:47:07;5.50;52.40
8067;DHT22;4076;48.076;9.118;2023-04-03T16:49:33;5.40;52.20
8067;DHT22;4076;48.076;9.118;2023-04-03T16:52:01;5.30;52.10
8067;DHT22;4076;48.076;9.118;2023-04-03T16:54:26;5.40;51.90
8067;DHT22;4076;48.076;9.118;2023-04-03T16:56:52;5.30;52.60
8067;DHT22;4076;48.076;9.118;2023-04-03T16:59:19;5.30;53.00
8067;DHT22;4076;48.076;9.118;2023-04-03T17:01:45;5.20;52.90
8067;DHT22;4076;48.076;9.118;2023-04-03T17:04:10;5.20;53.60
8067;DHT22;4076;48.076;9.118;2023-04-03T17:06:36;5.10;53.50
8067;DHT22;4076;48.076;9.118;2023-04-03T17:09:02;5.00;54.60
8067;DHT22;4076;48.076;9.118;2023-04-03T17:11:29;4.90;54.70
8067;DHT22;4076;48.076;9.118;2023-04-03T17:13:55;4.90;54.40
8067;DHT22;4076;48.076;9.118;2023-04-03T17:16:21;4.90;54.70
8067;DHT22;4076;48.076;9.118;2023-04-03T17:18:47;4.80;55.20
8067;DHT22;4076;48.076;9.118;2023-04-03T17:21:13;4.70;54.70
8067;DHT22;4076;48.076;9.118;2023-04-03T17:23:41;4.70;55.80
8067;DHT22;4076;48.076;9.118;2023-04-03T17:26:08;4.70;55.30
8067;DHT22;4076;48.076;9.118;2023-04-03T17:28:34;4.60;55.60
8067;DHT22;4076;48.076;9.118;2023-04-03T17:31:01;4.50;55.60
8067;DHT22;4076;48.076;9.118;2023-04-03T17:33:28;4.50;55.30
8067;DHT22;4076;48.076;9.118;2023-04-03T17:35:59;4.40;55.10
8067;DHT22;4076;48.076;9.118;2023-04-03T17:38:29;4.40;55.50
8067;DHT22;4076;48.076;9.118;2023-04-03T17:40:58;4.40;55.10
8067;DHT22;4076;48.076;9.118;2023-04-03T17:43:24;4.40;55.20
8067;DHT22;4076;48.076;9.118;2023-04-03T17:45:50;4.30;55.90
8067;DHT22;4076;48.076;9.118;2023-04-03T17:48:16;4.30;55.90
8067;DHT22;4076;48.076;9.118;2023-04-03T17:50:42;4.20;56.10
8067;DHT22;4076;48.076;9.118;2023-04-03T17:53:08;4.10;56.70
8067;DHT22;4076;48.076;9.118;2023-04-03T17:55:36;4.10;56.80
8067;DHT22;4076;48.076;9.118;2023-04-03T17:58:02;4.10;57.20
8067;DHT22;4076;48.076;9.118;2023-04-03T18:00:28;4.10;56.90
8067;DHT22;4076;48.076;9.118;2023-04-03T18:02:54;4.00;57.30
8067;DHT22;4076;48.076;9.118;2023-04-03T18:05:20;4.00;57.60
8067;DHT22;4076;48.076;9.118;2023-04-03T18:07:46;4.00;57.90